Time;durP1;ratioP1;P1;durP2;ratioP2;P2;SDS_P1;SDS_P2;PMS_P1;PMS_P2;Temp;Humidity;BMP_temperature;BMP_pressure;BME280_temperature;BME280_humidity;BME280_pressure;Samples;Min_cycle;Max_cycle;Signal;HPM_P1;HPM_P2
2021/04/21 00:00:10;;;;;;;24.00;13.35;;;;;;;;;;5081571;28;20119;-81
2021/04/21 00:02:35;;;;;;;23.58;13.60;;;;;;;;;;5070587;28;20103;-82
2021/04/21 00:05:00;;;;;;;27.42;15.93;;;;;;;;;;5075931;28;20025;-80
2021/04/21 00:07:27;;;;;;;27.05;15.48;;;;;;;;;;5084574;28;20032;-80
2021/04/21 00:09:53;;;;;;;25.88;15.13;;;;;;;;;;5096686;28;20027;-80
2021/04/21 00:12:19;;;;;;;25.50;15.27;;;;;;;;;;5071992;28;20032;-82
2021/04/21 00:14:45;;;;;;;25.88;13.57;;;;;;;;;;5081047;28;20031;-82
2021/04/21 00:17:10;;;;;;;28.83;15.38;;;;;;;;;;5096543;28;20035;-81
2021/04/21 00:19:37;;;;;;;25.17;14.10;;;;;;;;;;5095596;28;20100;-81
2021/04/21 00:22:03;;;;;;;25.70;14.45;;;;;;;;;;5078804;28;20074;-82
2021/04/21 00:24:32;;;;;;;25.35;15.10;;;;;;;;;;5074585;28;20027;-80
2021/04/21 00:26:58;;;;;;;26.25;15.43;;;;;;;;;;5081030;28;20463;-81
2021/04/21 00:29:24;;;;;;;26.20;14.13;;;;;;;;;;5075537;28;20060;-80
2021/04/21 00:31:50;;;;;;;24.77;13.55;;;;;;;;;;5073627;28;20035;-80
2021/04/21 00:34:17;;;;;;;24.98;15.23;;;;;;;;;;5071377;28;20056;-82
2021/04/21 00:36:45;;;;;;;25.63;13.50;;;;;;;;;;5081994;28;20037;-81
2021/04/21 00:39:11;;;;;;;22.20;12.52;;;;;;;;;;5073341;28;20020;-81
2021/04/21 00:41:48;;;;;;;23.80;14.38;;;;;;;;;;5088891;28;20024;-80
2021/04/21 00:44:13;;;;;;;27.00;13.50;;;;;;;;;;5071995;28;20027;-81
2021/04/21 00:46:45;;;;;;;23.06;12.48;;;;;;;;;;5080647;28;20039;-81
2021/04/21 00:49:14;;;;;;;21.10;11.93;;;;;;;;;;5070352;28;20151;-81
2021/04/21 00:51:53;;;;;;;20.75;12.20;;;;;;;;;;5075357;28;20016;-81
2021/04/21 00:54:37;;;;;;;20.48;11.82;;;;;;;;;;5083320;28;20537;-82
2021/04/21 00:57:22;;;;;;;21.55;12.25;;;;;;;;;;5083247;28;20058;-81
2021/04/21 00:59:53;;;;;;;19.85;11.55;;;;;;;;;;5070981;28;20021;-82
2021/04/21 01:02:27;;;;;;;20.77;12.38;;;;;;;;;;5083992;28;20020;-80
2021/04/21 01:04:53;;;;;;;18.67;10.27;;;;;;;;;;5073871;28;20453;-81
2021/04/21 01:07:19;;;;;;;18.45;11.20;;;;;;;;;;5083498;28;20024;-82
2021/04/21 01:09:46;;;;;;;18.75;10.57;;;;;;;;;;5086112;28;20406;-82
2021/04/21 01:12:13;;;;;;;18.15;10.23;;;;;;;;;;5086164;28;20081;-80
2021/04/21 01:14:42;;;;;;;18.08;10.43;;;;;;;;;;5075432;28;20483;-81
2021/04/21 01:17:09;;;;;;;18.92;10.75;;;;;;;;;;5063762;28;20535;-82
2021/04/21 01:19:50;;;;;;;20.50;10.48;;;;;;;;;;5063269;28;20559;-81
2021/04/21 01:22:21;;;;;;;18.88;10.00;;;;;;;;;;5089541;28;20038;-82
2021/04/21 01:25:06;;;;;;;18.60;9.32;;;;;;;;;;5109659;28;20041;-80
2021/04/21 01:27:50;;;;;;;17.75;9.48;;;;;;;;;;5090398;28;20024;-82
2021/04/21 01:30:20;;;;;;;20.02;10.27;;;;;;;;;;5084531;28;20350;-81
2021/04/21 01:32:45;;;;;;;;;;;;;;;;;;5077493;28;20043;-81
2021/04/21 01:35:11;;;;;;;18.00;10.38;;;;;;;;;;5073411;28;19920;-81
2021/04/21 01:37:36;;;;;;;17.98;9.95;;;;;;;;;;5081266;28;20313;-81
2021/04/21 01:40:06;;;;;;;18.45;11.00;;;;;;;;;;5065700;28;20048;-81
2021/04/21 01:42:31;;;;;;;;;;;;;;;;;;5073619;28;20070;-81
2021/04/21 01:44:58;;;;;;;19.10;9.90;;;;;;;;;;5076942;28;19947;-82
2021/04/21 01:47:23;;;;;;;16.58;10.07;;;;;;;;;;5078989;28;20043;-82
2021/04/21 01:49:58;;;;;;;18.95;10.32;;;;;;;;;;5081500;28;20423;-81
2021/04/21 01:52:26;;;;;;;18.00;9.77;;;;;;;;;;5085371;28;20426;-81
2021/04/21 01:54:53;;;;;;;17.67;10.10;;;;;;;;;;5084098;28;20105;-82
2021/04/21 01:57:37;;;;;;;17.10;9.82;;;;;;;;;;5076581;28;20032;-81
2021/04/21 02:00:08;;;;;;;18.70;10.13;;;;;;;;;;5073153;28;20044;-81
2021/04/21 02:02:38;;;;;;;16.63;9.10;;;;;;;;;;5080407;28;20032;-80
2021/04/21 02:05:07;;;;;;;19.15;10.23;;;;;;;;;;5069017;28;20028;-81
2021/04/21 02:07:45;;;;;;;16.10;9.10;;;;;;;;;;5065141;28;20064;-82
2021/04/21 02:10:15;;;;;;;17.33;9.43;;;;;;;;;;5081516;28;20028;-82
2021/04/21 02:12:43;;;;;;;15.75;9.13;;;;;;;;;;5084221;28;20028;-82
2021/04/21 02:15:09;;;;;;;14.85;9.40;;;;;;;;;;5085851;28;20016;-81
2021/04/21 02:17:52;;;;;;;16.52;9.57;;;;;;;;;;5082567;28;20027;-82
2021/04/21 02:20:23;;;;;;;14.80;8.55;;;;;;;;;;5077600;28;20012;-82
2021/04/21 02:22:55;;;;;;;13.65;8.70;;;;;;;;;;5078419;28;20061;-82
2021/04/21 02:25:31;;;;;;;13.57;8.27;;;;;;;;;;5083754;28;20661;-81
2021/04/21 02:28:01;;;;;;;15.95;8.55;;;;;;;;;;5077306;28;20029;-81
2021/04/21 02:30:38;;;;;;;13.60;7.65;;;;;;;;;;5093555;28;20037;-81
2021/04/21 02:33:18;;;;;;;12.02;6.88;;;;;;;;;;5102950;28;20116;-82
2021/04/21 02:35:51;;;;;;;13.63;7.60;;;;;;;;;;5081028;28;20044;-82
2021/04/21 02:38:25;;;;;;;16.25;8.90;;;;;;;;;;5068969;28;20019;-82
2021/04/21 02:40:53;;;;;;;14.60;8.23;;;;;;;;;;5072192;28;20576;-82
2021/04/21 02:43:21;;;;;;;14.38;7.75;;;;;;;;;;5109957;28;20042;-80
2021/04/21 02:45:55;;;;;;;14.20;8.23;;;;;;;;;;5110073;28;20008;-81
2021/04/21 02:48:27;;;;;;;13.00;7.20;;;;;;;;;;5074379;28;20062;-82
2021/04/21 02:51:02;;;;;;;15.43;8.23;;;;;;;;;;5090994;28;20465;-82
2021/04/21 02:53:30;;;;;;;12.40;7.07;;;;;;;;;;5083338;28;20029;-81
2021/04/21 02:56:07;;;;;;;13.07;7.45;;;;;;;;;;5060508;28;20104;-81
2021/04/21 02:58:37;;;;;;;13.23;7.75;;;;;;;;;;5081809;28;20023;-80
2021/04/21 03:01:12;;;;;;;11.68;7.25;;;;;;;;;;5088195;28;20029;-81
2021/04/21 03:03:41;;;;;;;13.07;7.38;;;;;;;;;;5082990;28;20024;-82
2021/04/21 03:06:10;;;;;;;11.85;6.45;;;;;;;;;;5081324;28;20095;-82
2021/04/21 03:08:38;;;;;;;12.52;6.93;;;;;;;;;;5081160;28;20757;-82
2021/04/21 03:11:25;;;;;;;12.48;7.22;;;;;;;;;;5078641;28;20027;-83
2021/04/21 03:13:53;;;;;;;11.68;7.32;;;;;;;;;;5083154;28;20088;-80
2021/04/21 03:16:19;;;;;;;11.35;7.40;;;;;;;;;;5083813;28;20399;-81
2021/04/21 03:18:46;;;;;;;11.88;6.88;;;;;;;;;;5088776;28;20016;-81
2021/04/21 03:21:16;;;;;;;12.25;7.07;;;;;;;;;;5065510;28;20047;-80
2021/04/21 03:23:42;;;;;;;13.07;7.28;;;;;;;;;;5082594;28;20020;-81
2021/04/21 03:26:08;;;;;;;14.85;8.07;;;;;;;;;;5084393;28;20552;-82
2021/04/21 03:28:35;;;;;;;12.43;7.55;;;;;;;;;;5078531;28;20032;-80
2021/04/21 03:31:04;;;;;;;12.63;7.55;;;;;;;;;;5085555;28;20538;-81
2021/04/21 03:33:31;;;;;;;11.23;7.32;;;;;;;;;;5078448;28;20020;-80
2021/04/21 03:35:57;;;;;;;12.90;7.40;;;;;;;;;;5079308;28;20040;-81
2021/04/21 03:38:22;;;;;;;15.43;8.07;;;;;;;;;;5101437;28;20031;-79
2021/04/21 03:40:48;;;;;;;11.35;7.28;;;;;;;;;;5106775;28;20004;-82
2021/04/21 03:43:13;;;;;;;12.75;7.35;;;;;;;;;;5086192;28;20016;-81
2021/04/21 03:45:40;;;;;;;11.88;6.93;;;;;;;;;;5083609;28;20026;-81
2021/04/21 03:48:07;;;;;;;12.32;7.40;;;;;;;;;;5083851;28;20107;-81
2021/04/21 03:50:32;;;;;;;14.75;9.18;;;;;;;;;;5073320;28;21058;-82
2021/04/21 03:52:58;;;;;;;14.05;7.00;;;;;;;;;;5076469;28;20037;-82
2021/04/21 03:55:24;;;;;;;13.77;7.88;;;;;;;;;;5076388;28;20040;-81
2021/04/21 03:57:51;;;;;;;10.70;6.53;;;;;;;;;;5081861;28;20028;-83
2021/04/21 04:00:17;;;;;;;11.90;6.90;;;;;;;;;;5083445;28;20020;-82
2021/04/21 04:02:54;;;;;;;10.95;7.22;;;;;;;;;;5077199;28;20019;-82
2021/04/21 04:05:21;;;;;;;13.20;7.38;;;;;;;;;;5082137;28;20394;-80
2021/04/21 04:07:48;;;;;;;13.75;7.63;;;;;;;;;;5078552;28;20371;-81
2021/04/21 04:10:14;;;;;;;12.00;7.30;;;;;;;;;;5072398;28;20174;-80
2021/04/21 04:12:41;;;;;;;12.88;7.45;;;;;;;;;;5085316;28;20569;-82
2021/04/21 04:15:07;;;;;;;11.80;6.90;;;;;;;;;;5072774;28;20028;-81
2021/04/21 04:17:33;;;;;;;12.48;7.40;;;;;;;;;;5077806;28;20050;-81
2021/04/21 04:19:59;;;;;;;12.15;7.40;;;;;;;;;;5077584;28;20028;-81
2021/04/21 04:22:27;;;;;;;12.23;7.78;;;;;;;;;;5084302;28;20026;-81
2021/04/21 04:24:53;;;;;;;12.95;6.57;;;;;;;;;;5076112;28;20028;-82
2021/04/21 04:27:20;;;;;;;11.90;7.30;;;;;;;;;;5077414;28;20385;-81
2021/04/21 04:29:46;;;;;;;11.65;6.80;;;;;;;;;;5077386;28;20040;-81
2021/04/21 04:32:12;;;;;;;13.32;7.97;;;;;;;;;;5076781;28;20653;-79
2021/04/21 04:34:37;;;;;;;13.20;7.55;;;;;;;;;;5080857;28;20049;-80
2021/04/21 04:37:02;;;;;;;10.32;6.68;;;;;;;;;;5081779;28;20028;-82
2021/04/21 04:39:28;;;;;;;15.23;7.47;;;;;;;;;;5082250;28;20119;-82
2021/04/21 04:41:54;;;;;;;17.38;9.20;;;;;;;;;;5084744;28;20025;-83
2021/04/21 04:44:20;;;;;;;14.30;8.00;;;;;;;;;;5080328;28;20096;-80
2021/04/21 04:46:49;;;;;;;11.93;7.55;;;;;;;;;;5108145;28;20008;-82
2021/04/21 04:49:16;;;;;;;12.85;7.20;;;;;;;;;;5092016;28;20202;-83
2021/04/21 04:51:42;;;;;;;14.13;8.00;;;;;;;;;;5093759;28;20024;-84
2021/04/21 04:54:09;;;;;;;13.35;8.38;;;;;;;;;;5084209;28;20095;-84
2021/04/21 04:56:35;;;;;;;12.82;6.85;;;;;;;;;;5099144;28;20032;-83
2021/04/21 04:59:05;;;;;;;10.52;6.22;;;;;;;;;;5069129;28;20467;-83
2021/04/21 05:01:30;;;;;;;;;;;;;;;;;;5068260;28;20043;-93
2021/04/21 05:03:56;;;;;;;11.38;6.85;;;;;;;;;;5077763;28;19911;-89
2021/04/21 05:06:28;;;;;;;14.93;7.28;;;;;;;;;;5060721;28;20277;-85
2021/04/21 05:08:53;;;;;;;10.43;6.90;;;;;;;;;;5085574;28;20342;-84
2021/04/21 05:11:21;;;;;;;14.00;7.53;;;;;;;;;;5087494;28;20120;-89
2021/04/21 05:13:47;;;;;;;12.75;7.00;;;;;;;;;;5095546;28;20111;-84
2021/04/21 05:16:28;;;;;;;14.40;7.22;;;;;;;;;;5087348;28;20047;-86
2021/04/21 05:19:27;;;;;;;10.23;6.15;;;;;;;;;;5088788;28;20137;-81
2021/04/21 05:21:55;;;;;;;8.10;5.60;;;;;;;;;;5016578;28;20043;-83
2021/04/21 05:24:38;;;;;;;12.90;6.07;;;;;;;;;;5014229;28;20097;-84
2021/04/21 05:27:22;;;;;;;8.52;5.47;;;;;;;;;;5005142;28;20034;-84
2021/04/21 05:30:06;;;;;;;8.50;5.35;;;;;;;;;;5007601;28;20034;-82
2021/04/21 05:32:50;;;;;;;7.03;4.90;;;;;;;;;;5011172;28;20087;-83
2021/04/21 05:35:35;;;;;;;7.78;4.25;;;;;;;;;;5004045;28;20046;-84
2021/04/21 05:38:09;;;;;;;7.47;4.57;;;;;;;;;;5010927;28;20055;-82
2021/04/21 05:40:53;;;;;;;8.05;4.43;;;;;;;;;;4991102;28;20112;-82
2021/04/21 05:43:36;;;;;;;8.05;4.63;;;;;;;;;;5012813;28;20029;-84
2021/04/21 05:46:08;;;;;;;6.70;4.38;;;;;;;;;;4990066;28;20030;-83
2021/04/21 05:48:38;;;;;;;5.38;3.90;;;;;;;;;;5007347;28;20030;-84
2021/04/21 05:51:18;;;;;;;6.43;4.32;;;;;;;;;;4998867;28;20033;-82
2021/04/21 05:54:03;;;;;;;7.30;4.32;;;;;;;;;;5018697;28;20006;-82
2021/04/21 05:56:56;;;;;;;6.57;4.60;;;;;;;;;;5017908;28;20054;-85
2021/04/21 05:59:21;;;;;;;5.75;3.97;;;;;;;;;;5075586;28;20036;-84
2021/04/21 06:01:47;;;;;;;7.60;4.45;;;;;;;;;;5078938;28;20038;-84
2021/04/21 06:04:14;;;;;;;7.13;4.35;;;;;;;;;;5075740;28;20628;-83
2021/04/21 06:06:39;;;;;;;6.03;4.32;;;;;;;;;;5087924;28;20034;-85
2021/04/21 06:09:09;;;;;;;6.57;4.03;;;;;;;;;;5080168;28;20020;-83
2021/04/21 06:11:34;;;;;;;7.95;4.45;;;;;;;;;;5083718;28;20061;-84
2021/04/21 06:14:00;;;;;;;9.18;4.43;;;;;;;;;;5086942;28;20037;-83
2021/04/21 06:16:26;;;;;;;8.10;4.60;;;;;;;;;;5087535;28;20038;-83
2021/04/21 06:18:53;;;;;;;5.40;3.97;;;;;;;;;;5083318;28;20012;-84
2021/04/21 06:21:20;;;;;;;9.27;4.70;;;;;;;;;;5071049;28;20024;-84
2021/04/21 06:23:46;;;;;;;7.50;4.53;;;;;;;;;;5085409;28;20047;-84
2021/04/21 06:26:11;;;;;;;7.38;4.13;;;;;;;;;;5087192;28;20044;-82
2021/04/21 06:28:36;;;;;;;8.10;4.70;;;;;;;;;;5073734;28;20033;-84
2021/04/21 06:31:04;;;;;;;5.82;4.00;;;;;;;;;;5085439;28;20099;-82
2021/04/21 06:33:36;;;;;;;8.77;4.28;;;;;;;;;;5088317;28;20052;-83
2021/04/21 06:36:02;;;;;;;14.07;5.65;;;;;;;;;;5062982;28;20042;-83
2021/04/21 06:38:31;;;;;;;9.80;4.22;;;;;;;;;;5090855;28;20023;-83
2021/04/21 06:40:56;;;;;;;8.77;4.25;;;;;;;;;;5080407;28;20043;-85
2021/04/21 06:43:23;;;;;;;9.40;4.72;;;;;;;;;;5111394;28;20072;-83
2021/04/21 06:45:49;;;;;;;6.88;4.30;;;;;;;;;;5100134;28;20050;-84
2021/04/21 06:48:15;;;;;;;6.13;4.20;;;;;;;;;;5096327;28;20414;-85
2021/04/21 06:50:41;;;;;;;8.73;4.30;;;;;;;;;;5083706;28;20085;-84
2021/04/21 06:53:07;;;;;;;8.65;4.55;;;;;;;;;;5079500;28;20025;-83
2021/04/21 06:55:34;;;;;;;8.60;4.50;;;;;;;;;;5064722;28;20134;-84
2021/04/21 06:58:00;;;;;;;7.13;4.82;;;;;;;;;;5089351;28;20048;-82
2021/04/21 07:00:26;;;;;;;10.35;4.10;;;;;;;;;;5097574;28;20013;-83
2021/04/21 07:02:54;;;;;;;10.35;4.78;;;;;;;;;;5077931;28;20032;-83
2021/04/21 07:05:39;;;;;;;7.90;4.57;;;;;;;;;;5088375;28;20028;-83
2021/04/21 07:08:06;;;;;;;8.45;5.05;;;;;;;;;;5084638;28;20150;-82
2021/04/21 07:10:36;;;;;;;6.75;4.90;;;;;;;;;;5092384;28;20528;-83
2021/04/21 07:13:02;;;;;;;12.13;5.72;;;;;;;;;;5091273;28;20031;-83
2021/04/21 07:15:28;;;;;;;9.73;5.25;;;;;;;;;;5095240;28;20055;-83
2021/04/21 07:17:53;;;;;;;8.43;4.70;;;;;;;;;;5085575;28;20811;-82
2021/04/21 07:20:19;;;;;;;6.68;4.65;;;;;;;;;;5080148;28;20081;-83
2021/04/21 07:22:44;;;;;;;6.45;4.40;;;;;;;;;;5092599;28;20058;-83
2021/04/21 07:25:12;;;;;;;10.75;5.97;;;;;;;;;;5059547;28;20039;-82
2021/04/21 07:27:38;;;;;;;13.05;6.45;;;;;;;;;;5089313;28;20064;-83
2021/04/21 07:30:03;;;;;;;7.72;4.57;;;;;;;;;;5083740;28;20059;-81
2021/04/21 07:32:31;;;;;;;7.68;5.03;;;;;;;;;;5077865;28;20032;-79
2021/04/21 07:34:59;;;;;;;11.10;5.43;;;;;;;;;;5059188;28;20048;-82
2021/04/21 07:37:34;;;;;;;9.85;5.53;;;;;;;;;;5074772;28;20100;-81
2021/04/21 07:40:00;;;;;;;8.90;5.22;;;;;;;;;;5085105;28;20558;-83
2021/04/21 07:42:25;;;;;;;9.07;5.20;;;;;;;;;;5064106;28;20123;-82
2021/04/21 07:44:52;;;;;;;10.68;5.38;;;;;;;;;;5079683;28;20432;-82
2021/04/21 07:47:26;;;;;;;8.85;5.53;;;;;;;;;;5078970;28;20506;-79
2021/04/21 07:49:55;;;;;;;9.98;4.93;;;;;;;;;;5086296;28;20023;-80
2021/04/21 07:52:22;;;;;;;8.73;4.60;;;;;;;;;;5077438;28;20493;-80
2021/04/21 07:54:47;;;;;;;18.67;7.55;;;;;;;;;;5073136;28;20092;-81
2021/04/21 07:57:17;;;;;;;15.50;6.18;;;;;;;;;;5087958;28;20122;-80
2021/04/21 07:59:43;;;;;;;13.07;6.03;;;;;;;;;;5083081;28;20542;-80
2021/04/21 08:02:14;;;;;;;7.82;4.88;;;;;;;;;;5084177;28;20027;-80
2021/04/21 08:04:50;;;;;;;15.57;6.50;;;;;;;;;;5077053;28;20035;-80
2021/04/21 08:07:28;;;;;;;16.42;8.35;;;;;;;;;;5083604;28;20442;-80
2021/04/21 08:09:54;;;;;;;9.00;5.05;;;;;;;;;;5088370;28;20028;-81
2021/04/21 08:12:19;;;;;;;8.85;5.15;;;;;;;;;;5084441;28;20054;-80
2021/04/21 08:14:47;;;;;;;7.50;5.03;;;;;;;;;;5078720;28;20100;-81
2021/04/21 08:17:15;;;;;;;8.73;4.80;;;;;;;;;;5085189;28;20047;-81
2021/04/21 08:19:41;;;;;;;7.82;5.18;;;;;;;;;;5074211;28;20023;-80
2021/04/21 08:22:06;;;;;;;7.38;5.03;;;;;;;;;;5089689;28;20024;-81
2021/04/21 08:24:42;;;;;;;9.90;5.70;;;;;;;;;;5090195;28;20494;-80
2021/04/21 08:27:08;;;;;;;9.65;5.57;;;;;;;;;;5074679;28;20036;-79
2021/04/21 08:29:33;;;;;;;9.18;5.45;;;;;;;;;;5089460;28;20100;-81
2021/04/21 08:31:59;;;;;;;12.18;6.32;;;;;;;;;;5087997;28;20498;-82
2021/04/21 08:34:24;;;;;;;9.13;6.20;;;;;;;;;;5084070;28;20451;-80
2021/04/21 08:36:49;;;;;;;13.73;5.50;;;;;;;;;;5059444;28;20455;-79
2021/04/21 08:39:15;;;;;;;11.05;6.82;;;;;;;;;;5086232;28;20476;-80
2021/04/21 08:41:42;;;;;;;13.63;6.45;;;;;;;;;;5089517;28;20027;-80
2021/04/21 08:44:07;;;;;;;13.65;6.97;;;;;;;;;;5059206;28;20086;-78
2021/04/21 08:46:33;;;;;;;12.23;7.70;;;;;;;;;;5076015;28;20033;-80
2021/04/21 08:48:58;;;;;;;13.95;7.82;;;;;;;;;;5078978;28;20056;-82
2021/04/21 08:51:24;;;;;;;14.40;8.20;;;;;;;;;;5084644;28;20021;-79
2021/04/21 08:53:53;;;;;;;18.30;7.93;;;;;;;;;;5073362;28;20063;-82
2021/04/21 08:56:24;;;;;;;13.13;7.40;;;;;;;;;;5070075;28;20364;-79
2021/04/21 08:58:50;;;;;;;11.15;6.65;;;;;;;;;;5092444;28;20048;-81
2021/04/21 09:01:16;;;;;;;11.70;6.80;;;;;;;;;;5086420;28;20028;-79
2021/04/21 09:03:42;;;;;;;12.25;7.25;;;;;;;;;;5093982;28;20107;-80
2021/04/21 09:06:08;;;;;;;10.57;6.35;;;;;;;;;;5080998;28;20112;-80
2021/04/21 09:08:34;;;;;;;14.00;8.25;;;;;;;;;;5092965;28;20082;-81
2021/04/21 09:10:59;;;;;;;14.45;7.50;;;;;;;;;;5091783;28;20431;-80
2021/04/21 09:13:24;;;;;;;12.30;7.38;;;;;;;;;;5089786;28;20397;-80
2021/04/21 09:15:51;;;;;;;14.65;7.53;;;;;;;;;;5094973;28;20065;-81
2021/04/21 09:18:26;;;;;;;12.10;7.05;;;;;;;;;;5093086;28;20027;-80
2021/04/21 09:20:52;;;;;;;10.52;7.43;;;;;;;;;;5063142;28;20021;-80
2021/04/21 09:23:19;;;;;;;11.27;6.57;;;;;;;;;;5084714;28;20082;-79
2021/04/21 09:25:45;;;;;;;13.50;7.38;;;;;;;;;;5093239;28;20122;-79
2021/04/21 09:28:11;;;;;;;11.60;7.20;;;;;;;;;;5080608;28;20016;-80
2021/04/21 09:30:39;;;;;;;11.80;6.53;;;;;;;;;;5073446;28;20016;-80
2021/04/21 09:33:05;;;;;;;14.07;7.57;;;;;;;;;;5081157;28;20035;-81
2021/04/21 09:35:32;;;;;;;12.13;6.22;;;;;;;;;;5080390;28;20048;-80
2021/04/21 09:38:01;;;;;;;10.95;6.68;;;;;;;;;;5074295;28;20036;-78
2021/04/21 09:40:36;;;;;;;10.57;6.38;;;;;;;;;;5080799;28;20415;-78
2021/04/21 09:43:02;;;;;;;9.80;6.22;;;;;;;;;;5084145;28;20091;-80
2021/04/21 09:45:34;;;;;;;11.07;7.15;;;;;;;;;;5087365;28;20037;-79
2021/04/21 09:48:18;;;;;;;14.45;8.48;;;;;;;;;;5080857;28;20085;-79
2021/04/21 09:50:44;;;;;;;12.07;7.72;;;;;;;;;;5089990;28;20020;-80
2021/04/21 09:53:20;;;;;;;13.93;7.32;;;;;;;;;;5066623;28;20021;-80
2021/04/21 09:55:57;;;;;;;15.07;7.13;;;;;;;;;;5092152;28;20070;-80
2021/04/21 09:58:29;;;;;;;15.45;7.25;;;;;;;;;;5066928;28;20394;-80
2021/04/21 10:00:54;;;;;;;14.38;7.45;;;;;;;;;;5074935;28;20016;-79
2021/04/21 10:03:19;;;;;;;12.20;7.07;;;;;;;;;;5062197;28;20231;-79
2021/04/21 10:05:44;;;;;;;13.18;7.13;;;;;;;;;;5080624;28;20062;-79
2021/04/21 10:08:14;;;;;;;10.80;6.50;;;;;;;;;;5072759;28;20086;-79
2021/04/21 10:10:39;;;;;;;;;;;;;;;;;;5073554;28;20082;-79
2021/04/21 10:13:21;;;;;;;9.18;6.15;;;;;;;;;;5082461;28;20317;-78
2021/04/21 10:15:51;;;;;;;13.65;7.40;;;;;;;;;;5061435;28;20280;-80
2021/04/21 10:18:16;;;;;;;10.80;6.95;;;;;;;;;;5084492;28;20136;-79
2021/04/21 10:20:42;;;;;;;12.95;7.93;;;;;;;;;;5078104;28;20111;-81
2021/04/21 10:23:08;;;;;;;13.80;7.15;;;;;;;;;;5056116;28;20017;-81
2021/04/21 10:25:34;;;;;;;9.48;6.55;;;;;;;;;;5090984;28;20466;-80
2021/04/21 10:28:00;;;;;;;11.85;6.13;;;;;;;;;;5071899;28;20020;-80
2021/04/21 10:30:25;;;;;;;12.98;7.13;;;;;;;;;;5063870;28;20017;-78
2021/04/21 10:32:50;;;;;;;10.35;5.95;;;;;;;;;;5095674;28;20008;-78
2021/04/21 10:35:16;;;;;;;9.05;5.85;;;;;;;;;;5091859;28;20052;-79
2021/04/21 10:37:41;;;;;;;9.90;6.10;;;;;;;;;;5074608;28;20013;-80
2021/04/21 10:40:07;;;;;;;10.50;5.97;;;;;;;;;;5078557;28;20038;-79
2021/04/21 10:42:46;;;;;;;13.68;8.40;;;;;;;;;;5091721;28;20020;-80
2021/04/21 10:45:15;;;;;;;14.13;7.55;;;;;;;;;;5086515;28;20046;-80
2021/04/21 10:47:45;;;;;;;10.60;7.25;;;;;;;;;;5090181;28;20632;-79
2021/04/21 10:50:10;;;;;;;12.65;7.70;;;;;;;;;;5072924;28;20021;-81
2021/04/21 10:52:37;;;;;;;10.73;7.78;;;;;;;;;;5077512;28;20028;-80
2021/04/21 10:55:03;;;;;;;14.18;7.72;;;;;;;;;;5071982;28;20021;-82
2021/04/21 10:57:30;;;;;;;12.88;7.07;;;;;;;;;;5084949;28;20016;-79
2021/04/21 11:00:15;;;;;;;10.52;6.50;;;;;;;;;;5082257;28;20085;-81
2021/04/21 11:02:40;;;;;;;11.20;7.25;;;;;;;;;;5090300;28;20119;-80
2021/04/21 11:05:07;;;;;;;17.17;7.45;;;;;;;;;;5077170;28;20107;-82
2021/04/21 11:07:33;;;;;;;10.93;6.93;;;;;;;;;;5060480;28;20030;-78
2021/04/21 11:09:58;;;;;;;10.60;6.57;;;;;;;;;;5077911;28;20017;-80
2021/04/21 11:12:42;;;;;;;13.40;7.13;;;;;;;;;;5082670;28;20036;-80
2021/04/21 11:15:08;;;;;;;10.93;7.25;;;;;;;;;;5089773;28;20250;-82
2021/04/21 11:17:53;;;;;;;9.38;6.28;;;;;;;;;;5090965;28;20039;-81
2021/04/21 11:20:37;;;;;;;11.07;7.43;;;;;;;;;;5087793;28;20016;-79
2021/04/21 11:23:02;;;;;;;12.88;7.70;;;;;;;;;;5083695;28;20027;-80
2021/04/21 11:25:29;;;;;;;10.95;7.13;;;;;;;;;;5089005;28;20027;-80
2021/04/21 11:27:56;;;;;;;11.32;6.78;;;;;;;;;;5090481;28;20426;-80
2021/04/21 11:30:36;;;;;;;10.07;7.25;;;;;;;;;;5087424;28;20027;-81
2021/04/21 11:33:01;;;;;;;13.88;7.25;;;;;;;;;;5076119;28;20043;-80
2021/04/21 11:35:28;;;;;;;12.23;7.60;;;;;;;;;;5090059;28;20080;-80
2021/04/21 11:37:53;;;;;;;15.43;7.55;;;;;;;;;;5084831;28;20524;-81
2021/04/21 11:40:26;;;;;;;12.20;7.00;;;;;;;;;;5073104;28;20048;-81
2021/04/21 11:42:52;;;;;;;15.02;7.65;;;;;;;;;;5082921;28;20061;-80
2021/04/21 11:45:19;;;;;;;12.57;8.05;;;;;;;;;;5089448;28;20383;-78
2021/04/21 11:47:51;;;;;;;14.10;7.30;;;;;;;;;;5071304;28;20025;-79
2021/04/21 11:50:17;;;;;;;11.43;6.45;;;;;;;;;;5083963;28;20059;-78
2021/04/21 11:53:02;;;;;;;12.95;6.82;;;;;;;;;;5063232;28;20051;-79
2021/04/21 11:55:27;;;;;;;9.98;6.25;;;;;;;;;;5077819;28;20016;-76
2021/04/21 11:57:55;;;;;;;10.20;5.93;;;;;;;;;;5076313;28;20450;-77
2021/04/21 12:00:24;;;;;;;10.48;6.57;;;;;;;;;;5070076;28;20031;-79
2021/04/21 12:02:50;;;;;;;8.25;5.85;;;;;;;;;;5079124;28;20055;-78
2021/04/21 12:05:19;;;;;;;9.52;5.97;;;;;;;;;;5072114;28;20112;-78
2021/04/21 12:07:45;;;;;;;11.32;6.90;;;;;;;;;;5081508;28;20108;-77
2021/04/21 12:10:11;;;;;;;10.20;6.50;;;;;;;;;;5081634;28;20111;-80
2021/04/21 12:12:36;;;;;;;8.88;5.43;;;;;;;;;;5074850;28;20039;-78
2021/04/21 12:15:03;;;;;;;8.68;5.68;;;;;;;;;;5058095;28;20024;-78
2021/04/21 12:17:28;;;;;;;8.48;5.65;;;;;;;;;;5075957;28;20016;-78
2021/04/21 12:19:53;;;;;;;8.52;5.18;;;;;;;;;;5083251;28;20020;-79
2021/04/21 12:22:19;;;;;;;12.25;6.72;;;;;;;;;;5078934;28;20364;-77
2021/04/21 12:24:44;;;;;;;11.03;5.97;;;;;;;;;;5074376;28;20379;-77
2021/04/21 12:27:25;;;;;;;9.83;6.30;;;;;;;;;;5073052;28;20297;-79
2021/04/21 12:29:50;;;;;;;9.82;6.43;;;;;;;;;;5056448;28;20286;-77
2021/04/21 12:32:25;;;;;;;10.25;6.03;;;;;;;;;;5078720;28;20055;-77
2021/04/21 12:34:50;;;;;;;10.43;5.50;;;;;;;;;;5081511;28;20144;-78
2021/04/21 12:37:20;;;;;;;10.60;5.43;;;;;;;;;;5070553;28;20104;-77
2021/04/21 12:39:45;;;;;;;8.57;5.40;;;;;;;;;;5072023;28;20020;-77
2021/04/21 12:42:15;;;;;;;8.87;5.57;;;;;;;;;;5079308;28;20043;-78
2021/04/21 12:44:40;;;;;;;8.63;5.30;;;;;;;;;;5080481;28;20705;-78
2021/04/21 12:47:10;;;;;;;8.57;5.30;;;;;;;;;;5074686;28;20131;-78
2021/04/21 12:49:36;;;;;;;8.38;5.03;;;;;;;;;;5076877;28;20618;-78
2021/04/21 12:52:03;;;;;;;10.40;5.63;;;;;;;;;;5075316;28;20036;-78
2021/04/21 12:54:29;;;;;;;10.00;5.63;;;;;;;;;;5073140;28;20016;-78
2021/04/21 12:56:54;;;;;;;12.00;5.90;;;;;;;;;;5078842;28;20081;-79
2021/04/21 12:59:20;;;;;;;7.93;5.70;;;;;;;;;;5059337;28;20033;-78
2021/04/21 13:01:45;;;;;;;7.83;5.40;;;;;;;;;;5079482;28;20282;-79
2021/04/21 13:04:13;;;;;;;9.27;5.43;;;;;;;;;;5078971;28;20269;-79
2021/04/21 13:06:42;;;;;;;9.85;5.50;;;;;;;;;;5081673;28;20040;-80
2021/04/21 13:09:12;;;;;;;7.75;5.10;;;;;;;;;;5085427;28;20042;-79
2021/04/21 13:11:38;;;;;;;8.27;5.60;;;;;;;;;;5087235;28;20501;-80
2021/04/21 13:14:04;;;;;;;10.05;5.00;;;;;;;;;;5087627;28;20110;-81
2021/04/21 13:16:33;;;;;;;7.60;4.88;;;;;;;;;;5086807;28;20032;-79
2021/04/21 13:19:16;;;;;;;8.38;4.65;;;;;;;;;;5083735;28;20019;-79
2021/04/21 13:21:42;;;;;;;11.27;6.25;;;;;;;;;;5084814;28;20048;-80
2021/04/21 13:24:07;;;;;;;11.95;5.88;;;;;;;;;;5078304;28;20028;-79
2021/04/21 13:26:32;;;;;;;8.65;5.55;;;;;;;;;;5081653;28;20036;-81
2021/04/21 13:28:59;;;;;;;10.35;5.70;;;;;;;;;;5086557;28;20077;-80
2021/04/21 13:31:26;;;;;;;7.78;5.07;;;;;;;;;;5074902;28;20029;-81
2021/04/21 13:33:52;;;;;;;9.00;5.18;;;;;;;;;;5081958;28;20023;-79
2021/04/21 13:36:17;;;;;;;10.52;5.22;;;;;;;;;;5077253;28;20400;-79
2021/04/21 13:38:43;;;;;;;7.18;3.75;;;;;;;;;;5082770;28;20060;-80
2021/04/21 13:41:10;;;;;;;8.52;4.60;;;;;;;;;;5066487;28;20123;-79
2021/04/21 13:43:35;;;;;;;8.98;4.50;;;;;;;;;;5088214;28;20008;-78
2021/04/21 13:46:01;;;;;;;8.25;4.75;;;;;;;;;;5081233;28;20028;-77
2021/04/21 13:48:26;;;;;;;7.43;3.85;;;;;;;;;;5071918;28;20035;-78
2021/04/21 13:50:52;;;;;;;7.45;4.10;;;;;;;;;;5070873;28;20016;-78
2021/04/21 13:53:18;;;;;;;7.63;3.53;;;;;;;;;;5055804;28;20028;-78
2021/04/21 13:55:43;;;;;;;8.63;4.57;;;;;;;;;;5083311;28;20032;-77
2021/04/21 13:58:08;;;;;;;7.05;4.18;;;;;;;;;;5076687;28;20073;-79
2021/04/21 14:00:34;;;;;;;8.68;5.18;;;;;;;;;;5077357;28;20016;-79
2021/04/21 14:02:59;;;;;;;8.88;6.05;;;;;;;;;;5073066;28;20016;-78
2021/04/21 14:05:24;;;;;;;10.15;5.95;;;;;;;;;;5059403;28;20044;-78
2021/04/21 14:07:50;;;;;;;9.38;5.15;;;;;;;;;;5080346;28;20012;-77
2021/04/21 14:10:16;;;;;;;9.57;6.05;;;;;;;;;;5071585;28;20098;-79
2021/04/21 14:12:41;;;;;;;10.77;5.95;;;;;;;;;;5081195;28;20020;-83
2021/04/21 14:15:07;;;;;;;16.70;10.80;;;;;;;;;;5079637;28;20498;-78
2021/04/21 14:17:33;;;;;;;16.73;8.57;;;;;;;;;;5077067;28;20024;-80
2021/04/21 14:19:58;;;;;;;13.48;9.35;;;;;;;;;;5083562;28;20027;-79
2021/04/21 14:22:23;;;;;;;12.20;7.80;;;;;;;;;;5078956;28;20016;-81
2021/04/21 14:24:48;;;;;;;16.50;7.93;;;;;;;;;;5077738;28;20263;-80
2021/04/21 14:27:13;;;;;;;18.30;9.73;;;;;;;;;;5080186;28;20122;-79
2021/04/21 14:29:40;;;;;;;16.02;10.25;;;;;;;;;;5075922;28;20720;-80
2021/04/21 14:32:05;;;;;;;16.65;9.57;;;;;;;;;;5089743;28;20344;-78
2021/04/21 14:34:30;;;;;;;13.18;8.95;;;;;;;;;;5094607;28;20056;-77
2021/04/21 14:36:55;;;;;;;13.55;8.50;;;;;;;;;;5093204;28;20183;-79
2021/04/21 14:39:23;;;;;;;16.83;10.60;;;;;;;;;;5080933;28;20402;-79
2021/04/21 14:41:50;;;;;;;15.85;9.20;;;;;;;;;;5082774;28;20031;-79